Time;durP1;ratioP1;P1;durP2;ratioP2;P2;SDS_P1;SDS_P2;PMS_P1;PMS_P2;Temp;Humidity;BMP_temperature;BMP_pressure;BME280_temperature;BME280_humidity;BME280_pressure;Samples;Min_cycle;Max_cycle;Signal;HPM_P1;HPM_P2
2024/04/18 00:01:13;;;;;;;7.80;3.40;;;;;;;15.32;100.00;99301.02;106273;1253;61912;-76
2024/04/18 00:03:40;;;;;;;10.60;4.00;;;;;;;15.28;100.00;99307.90;106268;1248;61337;-77
2024/04/18 00:06:06;;;;;;;14.40;4.80;;;;;;;15.26;100.00;99306.40;106242;1253;74579;-77
2024/04/18 00:08:33;;;;;;;9.70;3.90;;;;;;;15.23;100.00;99312.13;106317;1251;63731;-76
2024/04/18 00:11:20;;;;;;;12.00;4.20;;;;;;;15.20;100.00;99314.63;106272;1248;71615;-78
2024/04/18 00:13:47;;;;;;;10.40;3.60;;;;;;;15.16;100.00;99318.80;106177;1253;61339;-75
2024/04/18 00:16:34;;;;;;;6.20;2.70;;;;;;;15.14;100.00;99315.52;106340;1248;61224;-77
2024/04/18 00:19:16;;;;;;;9.30;3.00;;;;;;;15.12;100.00;99322.88;106166;1253;73066;-78
2024/04/18 00:21:59;;;;;;;8.80;3.40;;;;;;;15.11;100.00;99317.58;106129;1253;63768;-77
2024/04/18 00:24:28;;;;;;;10.00;3.40;;;;;;;15.10;100.00;99309.89;106123;1248;72436;-79
2024/04/18 00:26:55;;;;;;;10.90;3.00;;;;;;;15.10;100.00;99302.17;106202;1251;61905;-77
2024/04/18 00:29:35;;;;;;;7.20;3.10;;;;;;;15.09;100.00;99301.00;106172;1253;61144;-78
2024/04/18 00:32:10;;;;;;;12.40;4.60;;;;;;;15.08;100.00;99303.90;105925;1250;74453;-77
2024/04/18 00:34:37;;;;;;;19.00;4.60;;;;;;;15.08;100.00;99306.08;106162;1248;62252;-80
2024/04/18 00:37:04;;;;;;;7.00;4.50;;;;;;;15.07;100.00;99306.55;106186;1248;71120;-79
2024/04/18 00:39:50;;;;;;;12.30;4.60;;;;;;;15.05;100.00;99309.02;106192;1253;61975;-76
2024/04/18 00:42:37;;;;;;;9.90;3.20;;;;;;;15.03;100.00;99315.32;106284;1248;61284;-77
2024/04/18 00:45:05;;;;;;;14.40;4.00;;;;;;;15.03;100.00;99307.12;106205;1254;74638;-78
2024/04/18 00:47:44;;;;;;;8.40;3.60;;;;;;;15.02;100.00;99309.53;106127;1252;63810;-76
2024/04/18 00:50:11;;;;;;;16.60;3.80;;;;;;;15.01;100.00;99309.29;106164;1248;72415;-77
2024/04/18 00:52:39;;;;;;;11.00;3.90;;;;;;;15.00;100.00;99305.82;105869;1254;62969;-77
2024/04/18 00:55:06;;;;;;;8.50;3.90;;;;;;;15.00;100.00;99301.63;106185;1250;61233;-77
2024/04/18 00:57:34;;;;;;;10.20;3.80;;;;;;;15.00;100.00;99298.81;106019;1248;74631;-77
2024/04/18 01:00:01;;;;;;;17.70;5.60;;;;;;;14.99;100.00;99300.60;106148;1254;63758;-77
2024/04/18 01:02:28;;;;;;;8.40;3.50;;;;;;;15.00;100.00;99300.56;106250;1253;72654;-77
2024/04/18 01:05:20;;;;;;;12.90;4.70;;;;;;;14.99;100.00;99302.41;106092;1253;62075;-77
2024/04/18 01:07:47;;;;;;;14.40;4.30;;;;;;;14.99;100.00;99308.25;106328;1252;61287;-80
2024/04/18 01:10:20;;;;;;;12.20;3.20;;;;;;;14.99;100.00;99310.34;106270;1248;73642;-76
2024/04/18 01:12:56;;;;;;;8.30;3.10;;;;;;;14.99;100.00;99307.70;106200;1249;62281;-77
2024/04/18 01:15:43;;;;;;;10.80;4.10;;;;;;;15.00;100.00;99301.91;106012;1251;72626;-77
2024/04/18 01:18:10;;;;;;;10.10;2.90;;;;;;;15.01;100.00;99301.27;105921;1254;61942;-76
2024/04/18 01:20:38;;;;;;;11.10;3.00;;;;;;;15.03;100.00;99303.73;106059;1250;61211;-78
2024/04/18 01:23:04;;;;;;;6.80;2.80;;;;;;;15.04;100.00;99305.36;106079;1249;74591;-77
2024/04/18 01:25:41;;;;;;;11.50;3.20;;;;;;;15.05;100.00;99304.96;106015;1253;63859;-74
2024/04/18 01:28:07;;;;;;;10.20;3.50;;;;;;;15.06;100.00;99303.85;105995;1251;61268;-79
2024/04/18 01:30:54;;;;;;;9.20;3.20;;;;;;;15.04;100.00;99301.85;106020;1254;61326;-77
2024/04/18 01:33:20;;;;;;;8.50;3.30;;;;;;;15.03;100.00;99298.45;106023;1249;61310;-77
2024/04/18 01:35:51;;;;;;;14.40;3.90;;;;;;;15.02;100.00;99302.75;105922;1253;74594;-78
2024/04/18 01:38:22;;;;;;;11.60;4.20;;;;;;;15.01;100.00;99294.64;106020;1254;63871;-75
2024/04/18 01:40:48;;;;;;;9.80;3.30;;;;;;;15.00;100.00;99291.53;105980;1251;71521;-75
2024/04/18 01:43:34;;;;;;;9.90;3.60;;;;;;;14.99;100.00;99293.83;105993;1253;61974;-75
2024/04/18 01:46:30;;;;;;;9.50;4.30;;;;;;;14.97;100.00;99291.31;105859;1254;61345;-78
2024/04/18 01:49:01;;;;;;;10.20;3.70;;;;;;;14.97;100.00;99286.81;106067;1251;74620;-77
2024/04/18 01:51:46;;;;;;;11.80;4.70;;;;;;;14.96;100.00;99277.86;105956;1253;63657;-77
2024/04/18 01:54:32;;;;;;;9.60;3.70;;;;;;;14.96;100.00;99274.34;105969;1251;72812;-77
2024/04/18 01:57:00;;;;;;;9.60;3.80;;;;;;;14.98;100.00;99285.42;106082;1251;61327;-78
2024/04/18 01:59:46;;;;;;;12.40;4.00;;;;;;;14.99;100.00;99282.58;106028;1249;61313;-75
2024/04/18 02:02:13;;;;;;;10.10;4.10;;;;;;;14.99;100.00;99291.48;106061;1254;74722;-76
2024/04/18 02:05:00;;;;;;;14.90;4.30;;;;;;;15.00;100.00;99295.12;106131;1254;63918;-76
2024/04/18 02:07:43;;;;;;;8.20;3.80;;;;;;;15.00;100.00;99299.34;106104;1251;72606;-79
2024/04/18 02:10:10;;;;;;;13.20;4.20;;;;;;;14.99;100.00;99301.71;105993;1254;62121;-79
2024/04/18 02:12:57;;;;;;;10.30;4.30;;;;;;;14.99;100.00;99296.27;105971;1251;61288;-74
2024/04/18 02:15:46;;;;;;;11.10;3.30;;;;;;;14.98;100.00;99298.43;105955;1253;73723;-78
2024/04/18 02:18:13;;;;;;;15.20;4.30;;;;;;;14.99;100.00;99298.74;106366;1250;61234;-76
2024/04/18 02:20:42;;;;;;;8.20;3.40;;;;;;;14.99;100.00;99294.13;109314;1250;72973;-76
2024/04/18 02:23:22;;;;;;;8.30;3.10;;;;;;;15.00;100.00;99288.36;107680;1253;61103;-76
2024/04/18 02:25:50;;;;;;;8.20;3.70;;;;;;;15.02;100.00;99279.92;105977;1250;61343;-79
2024/04/18 02:28:17;;;;;;;11.30;4.40;;;;;;;15.04;100.00;99272.15;106138;1249;74981;-77
2024/04/18 02:34:06;;;;;;;13.10;4.10;;;;;;;15.10;100.00;99302.55;102499;1292;600858;-78
2024/04/18 02:36:46;;;;;;;9.40;4.40;;;;;;;15.08;100.00;99286.21;104817;1272;61882;-76
2024/04/18 02:39:13;;;;;;;12.20;4.80;;;;;;;15.08;100.00;99280.53;105603;1260;59561;-76
2024/04/18 02:41:39;;;;;;;17.40;5.10;;;;;;;15.09;100.00;99279.20;105592;1257;71707;-77
2024/04/18 02:44:27;;;;;;;13.90;4.60;;;;;;;15.09;100.00;99289.27;105569;1259;62898;-77
2024/04/18 02:46:54;;;;;;;9.50;4.10;;;;;;;15.08;100.00;99308.85;105475;1255;207603;-75
2024/04/18 02:49:22;;;;;;;12.40;4.60;;;;;;;15.07;100.00;99307.73;105660;1256;60785;-79
2024/04/18 02:51:56;;;;;;;12.40;5.20;;;;;;;15.07;100.00;99321.19;105880;1254;60204;-78
2024/04/18 02:54:44;;;;;;;12.70;5.60;;;;;;;15.05;100.00;99312.18;105853;1254;71997;-78
2024/04/18 02:57:11;;;;;;;12.20;4.20;;;;;;;15.03;100.00;99318.34;105658;1258;63823;-76
2024/04/18 02:59:37;;;;;;;10.50;3.50;;;;;;;15.02;100.00;99315.43;105828;1256;71643;-79
2024/04/18 03:02:23;;;;;;;8.60;3.90;;;;;;;15.01;100.00;99314.88;105691;1256;61746;-79
2024/04/18 03:04:51;;;;;;;9.20;3.90;;;;;;;15.00;100.00;99315.84;105931;1252;60405;-78
2024/04/18 03:07:22;;;;;;;11.00;4.20;;;;;;;15.00;100.00;99311.82;105948;1254;72563;-78
2024/04/18 03:09:49;;;;;;;16.00;4.20;;;;;;;14.99;100.00;99308.16;105860;1256;63989;-78
2024/04/18 03:12:39;;;;;;;8.40;3.30;;;;;;;15.00;100.00;99311.62;105722;1254;72543;-78
2024/04/18 03:15:22;;;;;;;12.10;4.10;;;;;;;15.00;100.00;99306.67;105901;1256;61893;-79
2024/04/18 03:18:08;;;;;;;6.80;3.50;;;;;;;15.01;100.00;99312.27;105942;1253;60418;-77
2024/04/18 03:20:34;;;;;;;10.40;4.50;;;;;;;15.02;100.00;99309.65;105996;1253;73803;-78
2024/04/18 03:23:08;;;;;;;13.40;5.00;;;;;;;15.03;100.00;99310.07;105814;1256;63849;-75
2024/04/18 03:25:54;;;;;;;19.50;5.30;;;;;;;15.05;100.00;99302.17;105827;1256;72824;-78
2024/04/18 03:28:22;;;;;;;12.30;5.00;;;;;;;15.06;100.00;99292.66;105880;1256;62097;-78
2024/04/18 03:30:48;;;;;;;7.70;4.10;;;;;;;15.08;100.00;99292.35;105746;1254;60421;-79
2024/04/18 03:33:16;;;;;;;11.60;5.10;;;;;;;15.10;100.00;99293.38;105709;1254;74501;-79
2024/04/18 03:35:42;;;;;;;16.40;6.60;;;;;;;15.12;100.00;99291.79;105802;1256;65672;-76
2024/04/18 03:38:15;;;;;;;16.30;4.00;;;;;;;15.14;100.00;99289.86;105698;1254;72768;-75
2024/04/18 03:40:42;;;;;;;8.20;4.10;;;;;;;15.15;100.00;99289.89;105800;1256;61991;-78
2024/04/18 03:43:09;;;;;;;11.80;3.70;;;;;;;15.16;100.00;99289.40;105680;1256;60441;-79
2024/04/18 03:45:37;;;;;;;10.60;3.90;;;;;;;15.16;100.00;99276.06;105750;1254;71835;-80
2024/04/18 03:48:22;;;;;;;6.00;3.40;;;;;;;15.17;100.00;99271.52;105740;1256;64864;-77
2024/04/18 03:50:49;;;;;;;12.10;3.40;;;;;;;15.19;100.00;99270.86;105743;1256;72680;-78
2024/04/18 03:53:20;;;;;;;9.40;4.40;;;;;;;15.20;100.00;99259.86;105770;1257;61876;-76
2024/04/18 03:56:07;;;;;;;10.30;6.30;;;;;;;15.23;100.00;99259.48;105880;1254;60437;-81
2024/04/18 03:58:34;;;;;;;16.80;5.70;;;;;;;15.27;100.00;99253.78;105700;1252;73741;-79
2024/04/18 04:01:01;;;;;;;12.50;3.90;;;;;;;15.30;100.00;99248.91;105803;1256;64420;-79
2024/04/18 04:03:31;;;;;;;9.50;4.40;;;;;;;15.34;100.00;99260.66;105685;1254;71823;-77
2024/04/18 04:05:58;;;;;;;8.90;3.30;;;;;;;15.38;100.00;99257.88;105723;1256;60690;-77
2024/04/18 04:08:24;;;;;;;11.20;4.40;;;;;;;15.41;100.00;99270.59;105724;1256;60442;-77
2024/04/18 04:11:10;;;;;;;8.60;4.30;;;;;;;15.44;100.00;99267.55;105781;1257;73753;-78
2024/04/18 04:13:40;;;;;;;14.40;5.30;;;;;;;15.46;100.00;99277.35;105734;1256;63955;-77
2024/04/18 04:16:15;;;;;;;11.30;4.10;;;;;;;15.49;100.00;99270.95;105736;1253;71382;-80
2024/04/18 04:18:43;;;;;;;7.30;2.90;;;;;;;15.51;100.00;99264.95;105646;1256;62259;-77
2024/04/18 04:21:17;;;;;;;12.20;3.80;;;;;;;15.51;100.00;99264.16;105806;1254;60549;-77
2024/04/18 04:23:46;;;;;;;17.00;4.00;;;;;;;15.52;100.00;99258.05;105668;1256;73821;-79
2024/04/18 04:26:13;;;;;;;7.40;3.80;;;;;;;15.54;100.00;99248.09;105786;1254;63969;-82
2024/04/18 04:28:40;;;;;;;7.70;3.20;;;;;;;15.54;100.00;99233.20;105755;1254;72683;-79
2024/04/18 04:31:07;;;;;;;8.30;3.10;;;;;;;15.56;100.00;99230.26;105906;1257;61806;-78
2024/04/18 04:33:33;;;;;;;16.50;5.60;;;;;;;15.56;100.00;99247.00;105884;1257;60434;-79
2024/04/18 04:36:00;;;;;;;8.80;4.50;;;;;;;15.55;100.00;99259.02;105855;1254;73717;-78
2024/04/18 04:38:29;;;;;;;15.30;6.00;;;;;;;15.54;100.00;99260.18;105775;1256;63896;-79
2024/04/18 04:40:56;;;;;;;11.10;4.80;;;;;;;15.55;100.00;99257.43;105831;1257;72781;-81
2024/04/18 04:43:23;;;;;;;12.70;4.30;;;;;;;15.57;100.00;99256.06;105797;1256;61979;-81
2024/04/18 04:45:54;;;;;;;10.30;4.20;;;;;;;15.58;100.00;99257.33;105813;1256;60364;-79
2024/04/18 04:48:36;;;;;;;12.30;3.80;;;;;;;15.60;100.00;99269.31;105779;1254;73912;-76
2024/04/18 04:51:09;;;;;;;13.80;4.00;;;;;;;15.61;100.00;99275.94;105797;1256;62820;-75
2024/04/18 04:53:37;;;;;;;7.30;3.10;;;;;;;15.61;100.00;99278.55;105835;1254;72556;-80
2024/04/18 04:56:04;;;;;;;8.50;3.40;;;;;;;15.61;100.00;99267.12;105773;1256;63114;-77
2024/04/18 04:58:30;;;;;;;11.20;3.00;;;;;;;15.62;100.00;99280.23;105843;1254;60418;-77
2024/04/18 05:00:58;;;;;;;10.60;3.20;;;;;;;15.62;100.00;99272.92;105862;1255;73809;-77
2024/04/18 05:03:37;;;;;;;11.50;3.60;;;;;;;15.63;100.00;99273.36;105939;1257;63960;-78
2024/04/18 05:06:23;;;;;;;10.10;3.50;;;;;;;15.65;100.00;99271.11;105683;1254;72485;-79
2024/04/18 05:09:08;;;;;;;9.80;4.00;;;;;;;15.66;100.00;99277.48;105786;1257;61904;-79
2024/04/18 05:11:35;;;;;;;11.50;3.70;;;;;;;15.68;100.00;99283.45;105868;1258;60568;-78
2024/04/18 05:14:04;;;;;;;5.90;3.70;;;;;;;15.71;100.00;99287.20;105970;1253;73916;-76
2024/04/18 05:16:49;;;;;;;12.40;3.80;;;;;;;15.75;100.00;99272.20;108067;1254;63664;-78
2024/04/18 05:19:19;;;;;;;10.70;3.20;;;;;;;15.80;100.00;99267.46;107706;1256;71175;-78
2024/04/18 05:21:46;;;;;;;11.40;4.00;;;;;;;15.85;100.00;99268.73;105776;1256;62103;-76
2024/04/18 05:24:33;;;;;;;10.70;5.80;;;;;;;15.90;100.00;99259.36;105809;1255;60562;-77
2024/04/18 05:27:00;;;;;;;12.70;4.80;;;;;;;15.94;100.00;99254.86;105804;1257;73850;-78
2024/04/18 05:32:14;;;;;;;9.60;3.90;;;;;;;16.03;100.00;99248.84;105904;1256;71684;-77
2024/04/18 05:35:03;;;;;;;7.10;3.40;;;;;;;16.08;100.00;99241.65;105726;1257;62064;-77
2024/04/18 05:37:31;;;;;;;8.70;2.90;;;;;;;16.13;100.00;99234.32;105966;1253;60438;-81
2024/04/18 05:39:57;;;;;;;9.90;3.10;;;;;;;16.19;100.00;99236.21;105840;1257;72644;-76
2024/04/18 05:42:24;;;;;;;10.00;3.40;;;;;;;16.24;100.00;99232.16;105790;1257;64217;-76
2024/04/18 05:45:10;;;;;;;13.10;4.20;;;;;;;16.30;100.00;99239.25;105859;1254;73227;-78
2024/04/18 05:47:55;;;;;;;14.60;5.50;;;;;;;16.36;100.00;99236.48;105783;1255;60578;-80
2024/04/18 05:50:22;;;;;;;17.90;6.20;;;;;;;16.42;100.00;99233.60;105740;1257;60478;-76
2024/04/18 05:52:49;;;;;;;9.20;3.70;;;;;;;16.49;100.00;99243.11;105680;1256;73891;-76
2024/04/18 05:55:23;;;;;;;9.70;4.00;;;;;;;16.56;100.00;99243.77;105793;1254;64230;-79
2024/04/18 05:57:51;;;;;;;11.80;3.70;;;;;;;16.62;100.00;99244.86;105899;1257;72955;-79
2024/04/18 06:00:36;;;;;;;12.40;4.90;;;;;;;16.67;100.00;99246.83;105689;1260;62076;-79
2024/04/18 06:03:04;;;;;;;14.60;3.80;;;;;;;16.72;100.00;99253.17;105689;1257;60363;-78
2024/04/18 06:05:31;;;;;;;13.40;3.40;;;;;;;16.77;100.00;99244.45;105799;1254;74401;-78
2024/04/18 06:08:14;;;;;;;8.70;3.80;;;;;;;16.85;100.00;99246.98;105833;1257;62838;-78
2024/04/18 06:10:42;;;;;;;14.00;9.40;;;;;;;16.93;100.00;99247.01;106544;1253;73869;-78
2024/04/18 06:13:20;;;;;;;17.80;8.90;;;;;;;17.06;100.00;99242.46;106604;1255;63238;-77
2024/04/18 06:15:47;;;;;;;9.50;4.10;;;;;;;17.19;100.00;99244.39;106286;1255;60341;-77
2024/04/18 06:18:14;;;;;;;10.70;3.30;;;;;;;17.32;100.00;99241.38;105891;1255;73749;-77
2024/04/18 06:20:42;;;;;;;13.70;3.60;;;;;;;17.47;100.00;99256.84;105816;1257;65096;-79
2024/04/18 06:23:10;;;;;;;11.50;3.30;;;;;;;17.61;100.00;99245.89;105833;1254;71525;-78
2024/04/18 06:25:37;;;;;;;9.90;2.90;;;;;;;17.74;100.00;99246.94;105849;1256;61687;-76
2024/04/18 06:28:09;;;;;;;9.50;4.00;;;;;;;17.86;100.00;99250.77;105821;1260;62221;-80
2024/04/18 06:30:37;;;;;;;10.80;3.80;;;;;;;17.96;100.00;99248.37;105776;1257;75098;-79
2024/04/18 06:33:10;;;;;;;8.00;3.10;;;;;;;18.08;100.00;99238.57;105785;1257;63735;-78
2024/04/18 06:35:37;;;;;;;11.70;3.60;;;;;;;18.18;100.00;99232.99;105790;1256;72476;-78
2024/04/18 06:38:05;;;;;;;10.80;4.20;;;;;;;18.28;100.00;99236.52;105788;1256;60348;-78
2024/04/18 06:40:32;;;;;;;8.30;2.80;;;;;;;18.38;100.00;99229.30;105912;1257;60838;-77
2024/04/18 06:42:59;;;;;;;9.80;2.60;;;;;;;18.47;100.00;99230.70;105894;1257;73897;-75
2024/04/18 06:45:28;;;;;;;8.10;3.00;;;;;;;18.57;100.00;99229.91;105874;1257;64126;-79
2024/04/18 06:47:55;;;;;;;9.50;2.90;;;;;;;18.69;100.00;99229.23;105777;1256;71688;-76
2024/04/18 06:50:26;;;;;;;9.00;3.50;;;;;;;18.82;100.00;99217.83;105885;1257;61346;-77
2024/04/18 06:52:53;;;;;;;7.80;3.10;;;;;;;18.97;100.00;99218.61;105942;1256;61147;-75
2024/04/18 06:55:21;;;;;;;9.00;3.10;;;;;;;19.08;100.00;99218.77;105821;1257;74738;-78
2024/04/18 06:57:49;;;;;;;9.60;3.20;;;;;;;19.13;100.00;99212.42;105820;1257;63916;-77
2024/04/18 07:00:16;;;;;;;11.30;3.70;;;;;;;19.17;100.00;99213.59;105713;1257;71444;-78
2024/04/18 07:02:43;;;;;;;12.10;4.20;;;;;;;19.19;100.00;99211.04;105616;1257;62321;-77
2024/04/18 07:05:30;;;;;;;10.60;3.90;;;;;;;19.23;100.00;99202.95;105656;1258;61292;-76
2024/04/18 07:08:16;;;;;;;11.70;3.60;;;;;;;19.28;100.00;99196.15;105736;1256;76940;-77
2024/04/18 07:10:44;;;;;;;12.10;3.80;;;;;;;19.33;100.00;99190.39;105786;1256;65143;-77
2024/04/18 07:13:30;;;;;;;8.30;3.00;;;;;;;19.37;100.00;99185.32;105769;1254;72794;-77
2024/04/18 07:16:03;;;;;;;10.00;3.70;;;;;;;19.40;100.00;99193.63;105855;1257;61359;-76
2024/04/18 07:18:49;;;;;;;6.10;3.80;;;;;;;19.44;100.00;99193.52;105850;1257;61343;-79
2024/04/18 07:21:16;;;;;;;12.10;5.00;;;;;;;19.49;100.00;99190.23;105795;1257;76201;-77
2024/04/18 07:23:43;;;;;;;11.00;3.30;;;;;;;19.55;100.00;99191.36;105902;1257;63781;-78
2024/04/18 07:26:11;;;;;;;9.30;5.00;;;;;;;19.59;100.00;99184.25;105738;1257;71682;-77
2024/04/18 07:28:38;;;;;;;13.00;3.70;;;;;;;19.63;100.00;99187.95;105711;1266;61711;-79
2024/04/18 07:31:05;;;;;;;13.50;4.50;;;;;;;19.67;99.44;99192.66;105868;1255;61230;-77
2024/04/18 07:33:33;;;;;;;11.50;4.30;;;;;;;19.70;99.64;99188.45;105908;1256;74506;-77
2024/04/18 07:36:15;;;;;;;13.10;3.50;;;;;;;19.73;99.59;99195.54;105897;1256;63976;-78
2024/04/18 07:38:42;;;;;;;7.60;4.00;;;;;;;19.76;97.94;99197.86;105820;1257;72858;-76
2024/04/18 07:41:09;;;;;;;11.70;3.50;;;;;;;19.80;99.56;99205.36;105711;1257;61573;-79
2024/04/18 07:43:36;;;;;;;9.80;3.50;;;;;;;19.84;100.00;99206.77;105879;1256;61564;-78
2024/04/18 07:46:03;;;;;;;10.10;3.30;;;;;;;19.89;100.00;99217.87;105806;1255;73468;-77
2024/04/18 07:48:30;;;;;;;8.60;3.00;;;;;;;19.95;98.79;99214.88;105802;1257;64075;-78
2024/04/18 07:50:59;;;;;;;10.70;3.50;;;;;;;19.99;99.56;99220.74;105712;1254;73757;-80
2024/04/18 07:53:26;;;;;;;9.00;3.10;;;;;;;20.06;99.99;99224.16;105875;1254;61330;-82
2024/04/18 07:55:53;;;;;;;13.30;3.90;;;;;;;20.14;100.00;99219.82;105938;1256;62550;-80
2024/04/18 07:58:19;;;;;;;5.80;2.90;;;;;;;20.22;99.62;99217.55;105888;1256;75733;-81
2024/04/18 08:00:53;;;;;;;13.50;3.20;;;;;;;20.31;100.00;99209.68;105986;1256;63944;-81
2024/04/18 08:03:23;;;;;;;12.30;3.30;;;;;;;20.43;100.00;99206.45;105878;1254;73726;-78
2024/04/18 08:05:57;;;;;;;12.10;3.90;;;;;;;20.54;100.00;99205.80;105861;1254;61260;-79
2024/04/18 08:08:28;;;;;;;9.70;3.80;;;;;;;20.66;100.00;99213.77;105919;1257;61262;-78
2024/04/18 08:11:03;;;;;;;9.30;3.70;;;;;;;20.78;100.00;99215.83;108528;1254;74002;-77
2024/04/18 08:13:50;;;;;;;9.60;3.50;;;;;;;20.94;100.00;99217.55;106932;1254;65918;-79
2024/04/18 08:16:24;;;;;;;13.40;3.60;;;;;;;21.13;100.00;99226.17;105889;1254;72831;-79
2024/04/18 08:18:50;;;;;;;8.10;3.50;;;;;;;21.30;100.00;99220.55;105870;1254;61347;-79
2024/04/18 08:21:17;;;;;;;11.60;3.80;;;;;;;21.46;100.00;99217.22;105844;1256;61338;-79
2024/04/18 08:23:51;;;;;;;8.20;3.30;;;;;;;21.57;100.00;99219.33;105862;1256;74919;-79
2024/04/18 08:26:17;;;;;;;6.50;3.40;;;;;;;21.64;100.00;99208.60;105904;1256;62805;-79
2024/04/18 08:28:44;;;;;;;10.90;4.10;;;;;;;21.69;99.67;99212.44;105830;1254;73151;-78
2024/04/18 08:31:12;;;;;;;8.50;4.20;;;;;;;21.70;94.70;99213.67;105957;1257;61339;-80
2024/04/18 08:33:40;;;;;;;9.90;2.90;;;;;;;21.70;83.83;99211.88;105840;1254;61375;-80
2024/04/18 08:36:20;;;;;;;5.10;2.80;;;;;;;21.69;78.70;99207.27;105732;1254;73531;-78
2024/04/18 08:38:47;;;;;;;12.10;3.10;;;;;;;21.66;80.42;99200.89;105817;1253;63025;-79
2024/04/18 08:41:16;;;;;;;7.50;3.10;;;;;;;21.65;81.21;99198.86;105749;1257;73766;-81
2024/04/18 08:43:43;;;;;;;8.90;2.40;;;;;;;21.62;76.66;99195.86;105791;1257;61327;-80
2024/04/18 08:46:13;;;;;;;6.80;3.40;;;;;;;21.59;74.38;99192.33;105809;1257;61243;-79
2024/04/18 08:48:40;;;;;;;7.10;2.50;;;;;;;21.57;79.86;99190.02;105863;1257;74748;-81
2024/04/18 08:51:07;;;;;;;10.40;3.60;;;;;;;21.55;84.96;99187.63;105690;1256;63793;-79
2024/04/18 08:53:34;;;;;;;9.10;3.10;;;;;;;21.53;79.47;99182.86;105687;1254;73233;-79
2024/04/18 08:56:02;;;;;;;8.10;2.30;;;;;;;21.52;78.91;99179.73;105751;1256;62274;-80
2024/04/18 08:58:30;;;;;;;9.20;3.20;;;;;;;21.53;76.14;99176.00;105753;1257;61352;-80
2024/04/18 09:00:58;;;;;;;7.60;2.80;;;;;;;21.56;79.31;99172.61;105792;1254;72287;-78
2024/04/18 09:03:25;;;;;;;7.00;3.20;;;;;;;21.60;73.61;99169.52;105684;1254;64808;-78
2024/04/18 09:05:52;;;;;;;8.60;2.80;;;;;;;21.64;70.90;99169.29;105750;1257;73675;-77
2024/04/18 09:08:20;;;;;;;11.50;2.70;;;;;;;21.73;72.12;99164.63;105723;1266;61525;-78
2024/04/18 09:10:46;;;;;;;9.30;2.70;;;;;;;21.83;74.33;99166.14;105825;1254;61333;-78
2024/04/18 09:13:14;;;;;;;7.00;2.60;;;;;;;21.95;76.60;99166.02;105751;1256;73674;-79
2024/04/18 09:15:40;;;;;;;13.00;3.80;;;;;;;22.06;72.04;99158.72;105701;1257;63840;-79
2024/04/18 09:18:07;;;;;;;8.20;3.10;;;;;;;22.15;74.22;99157.05;105814;1257;73958;-80
2024/04/18 09:20:39;;;;;;;8.20;3.30;;;;;;;22.24;71.71;99144.23;105872;1254;61349;-78
2024/04/18 09:23:06;;;;;;;10.80;3.30;;;;;;;22.34;68.34;99141.82;105886;1257;62028;-80
2024/04/18 09:25:33;;;;;;;10.30;3.30;;;;;;;22.44;66.98;99133.85;105804;1256;74733;-78
2024/04/18 09:28:05;;;;;;;10.20;3.00;;;;;;;22.54;65.45;99129.36;105856;1256;64895;-79
2024/04/18 09:30:33;;;;;;;9.70;2.70;;;;;;;22.60;64.48;99124.46;105742;1254;71597;-79
2024/04/18 09:33:02;;;;;;;8.80;3.20;;;;;;;22.63;63.77;99119.77;105764;1256;61387;-82
2024/04/18 09:35:34;;;;;;;9.70;2.90;;;;;;;22.67;62.41;99118.17;105777;1254;61336;-80
2024/04/18 09:38:01;;;;;;;9.90;3.40;;;;;;;22.67;62.28;99117.34;105637;1261;73713;-81
2024/04/18 09:40:40;;;;;;;11.00;3.90;;;;;;;22.67;63.62;99114.96;105800;1254;62895;-79
2024/04/18 09:43:31;;;;;;;9.90;3.60;;;;;;;22.65;65.47;99112.58;105902;1254;72792;-80
2024/04/18 09:46:04;;;;;;;9.90;4.10;;;;;;;22.61;63.45;99109.21;105752;1252;61363;-80
2024/04/18 09:48:32;;;;;;;14.60;4.80;;;;;;;22.55;61.27;99104.73;105748;1257;61224;-79
2024/04/18 09:50:59;;;;;;;9.70;4.00;;;;;;;22.50;60.98;99101.54;105776;1257;73944;-81
2024/04/18 09:53:26;;;;;;;12.90;4.50;;;;;;;22.46;61.86;99099.19;105858;1252;63390;-80
2024/04/18 09:55:52;;;;;;;11.60;4.60;;;;;;;22.44;63.09;99098.09;105930;1254;72663;-79
2024/04/18 09:58:19;;;;;;;14.70;5.30;;;;;;;22.40;63.08;99095.66;105670;1257;61269;-81
2024/04/18 10:00:48;;;;;;;9.20;4.70;;;;;;;22.33;62.89;99092.05;105758;1254;61304;-78
2024/04/18 10:03:15;;;;;;;16.20;4.40;;;;;;;22.28;65.12;99086.99;105933;1258;73786;-79
2024/04/18 10:05:48;;;;;;;14.70;4.90;;;;;;;22.23;65.48;99088.46;105850;1257;63028;-78
2024/04/18 10:08:18;;;;;;;11.80;3.90;;;;;;;22.17;66.65;99088.16;105925;1256;73881;-79
2024/04/18 10:10:46;;;;;;;12.00;4.20;;;;;;;22.12;67.94;99088.23;105869;1257;61333;-78
2024/04/18 10:13:13;;;;;;;14.60;4.80;;;;;;;22.07;69.12;99095.77;105807;1257;61324;-77
2024/04/18 10:15:42;;;;;;;15.10;4.80;;;;;;;22.00;71.37;99105.32;105897;1257;74696;-76
2024/04/18 10:18:19;;;;;;;15.70;5.50;;;;;;;21.97;71.97;99102.16;105771;1257;64012;-78
2024/04/18 10:20:46;;;;;;;15.80;7.40;;;;;;;21.95;70.91;99087.81;105885;1255;73206;-80
2024/04/18 10:23:14;;;;;;;16.30;7.60;;;;;;;21.93;73.79;99063.54;105812;1253;61356;-79
2024/04/18 10:25:43;;;;;;;13.30;7.80;;;;;;;21.94;76.21;99041.37;105948;1257;61399;-81
2024/04/18 10:28:22;;;;;;;18.80;9.40;;;;;;;21.96;76.49;99027.56;105658;1254;75833;-79
2024/04/18 10:30:49;;;;;;;18.20;8.30;;;;;;;21.99;76.76;99014.10;105704;1254;63969;-78
2024/04/18 10:33:16;;;;;;;17.10;9.90;;;;;;;22.01;75.79;98990.85;105742;1254;73424;-76
2024/04/18 10:35:43;;;;;;;23.20;12.50;;;;;;;22.02;74.05;98966.13;105901;1256;61654;-80
2024/04/18 10:38:10;;;;;;;17.30;8.80;;;;;;;22.01;72.44;98977.96;105713;1254;61376;-79
2024/04/18 10:40:56;;;;;;;19.50;8.80;;;;;;;21.98;68.54;99001.58;105774;1257;74698;-77
2024/04/18 10:43:26;;;;;;;18.40;7.10;;;;;;;21.91;67.94;99002.94;105907;1256;62106;-80
2024/04/18 10:45:54;;;;;;;19.50;7.10;;;;;;;21.86;66.36;99010.23;105700;1254;74905;-80
2024/04/18 10:48:24;;;;;;;22.70;7.90;;;;;;;21.82;66.30;99029.38;105977;1257;62185;-77
2024/04/18 10:50:51;;;;;;;13.80;6.50;;;;;;;21.81;67.32;99048.20;105887;1254;61346;-77
2024/04/18 10:53:18;;;;;;;17.50;6.50;;;;;;;21.80;65.83;99057.78;105779;1257;73852;-80
2024/04/18 10:55:46;;;;;;;15.20;6.20;;;;;;;21.78;63.66;99061.96;105856;1254;64290;-77
2024/04/18 10:58:15;;;;;;;21.50;6.50;;;;;;;21.75;63.81;99056.70;105948;1254;72872;-81
2024/04/18 11:00:46;;;;;;;14.10;7.20;;;;;;;21.73;66.00;99053.17;105899;1257;61263;-78
2024/04/18 11:03:13;;;;;;;16.10;8.10;;;;;;;21.75;68.39;99056.13;105852;1256;61231;-77
2024/04/18 11:05:40;;;;;;;17.90;9.60;;;;;;;21.77;69.99;99052.32;109260;1253;74353;-78
2024/04/18 11:08:19;;;;;;;24.10;12.00;;;;;;;21.82;68.68;99068.25;108158;1254;62864;-78
2024/04/18 11:10:46;;;;;;;28.10;14.10;;;;;;;21.85;69.80;99085.25;105850;1254;72984;-79
2024/04/18 11:13:15;;;;;;;20.10;8.70;;;;;;;21.89;72.83;99086.48;105872;1257;61151;-78
2024/04/18 11:15:42;;;;;;;16.40;7.90;;;;;;;21.95;73.12;99085.02;105930;1254;61371;-78
2024/04/18 11:18:09;;;;;;;18.70;6.30;;;;;;;22.02;71.78;99086.42;105831;1252;75693;-79
2024/04/18 11:20:36;;;;;;;18.00;6.30;;;;;;;22.09;71.31;99075.55;105919;1256;62325;-76
2024/04/18 11:23:03;;;;;;;11.60;4.50;;;;;;;22.15;72.37;99074.80;105827;1256;74157;-78
2024/04/18 11:25:41;;;;;;;15.90;6.30;;;;;;;22.24;73.80;99061.93;105837;1254;61349;-78
2024/04/18 11:28:08;;;;;;;15.90;6.80;;;;;;;22.33;79.95;99052.48;105868;1256;61339;-80
2024/04/18 11:30:40;;;;;;;14.30;6.20;;;;;;;22.43;84.83;99047.41;105828;1254;75935;-79
2024/04/18 11:33:13;;;;;;;10.40;5.10;;;;;;;22.51;81.36;99040.50;105791;1256;62981;-79
2024/04/18 11:35:40;;;;;;;15.20;6.40;;;;;;;22.56;73.11;99037.13;105762;1252;71627;-77
2024/04/18 11:38:11;;;;;;;18.00;5.20;;;;;;;22.59;68.74;99020.38;105713;1255;61384;-79
2024/04/18 11:40:39;;;;;;;12.60;5.20;;;;;;;22.61;64.24;99001.46;105917;1256;61226;-80